Time;durP1;ratioP1;P1;durP2;ratioP2;P2;SDS_P1;SDS_P2;PMS_P1;PMS_P2;Temp;Humidity;BMP_temperature;BMP_pressure;BME280_temperature;BME280_humidity;BME280_pressure;Samples;Min_cycle;Max_cycle;Signal;HPM_P1;HPM_P2
2023/11/26 00:01:37;;;;;;;9.80;4.70;;;;;;;;;;103758;1289;545860;-73
2023/11/26 00:05:14;;;;;;;7.70;4.10;;;;;;;;;;103846;1292;545086;-75
2023/11/26 00:08:52;;;;;;;7.80;3.90;;;;;;;;;;103753;1292;544835;-73
2023/11/26 00:12:30;;;;;;;7.50;3.50;;;;;;;;;;103788;1290;545372;-73
2023/11/26 00:16:06;;;;;;;8.40;3.80;;;;;;;;;;103730;1292;544813;-73
2023/11/26 00:19:45;;;;;;;7.00;3.80;;;;;;;;;;103768;1293;545606;-72
2023/11/26 00:23:22;;;;;;;8.90;3.50;;;;;;;;;;103801;1289;545576;-73
2023/11/26 00:26:59;;;;;;;7.10;3.20;;;;;;;;;;103766;1293;545689;-72
2023/11/26 00:30:37;;;;;;;7.30;3.30;;;;;;;;;;104148;1286;544949;-73
2023/11/26 00:34:14;;;;;;;6.80;3.00;;;;;;;;;;103836;1289;544798;-73
2023/11/26 00:37:47;;;;;;;7.50;3.50;;;;;;;;;;103864;1292;545015;-74
2023/11/26 00:41:29;;;;;;;10.40;5.80;;;;;;;;;;103755;1291;544922;-74
2023/11/26 00:45:07;;;;;;;22.00;10.20;;;;;;;;;;103782;1292;546349;-73
2023/11/26 00:48:43;;;;;;;21.60;9.20;;;;;;;;;;103594;1295;544734;-73
2023/11/26 00:52:42;;;;;;;19.10;8.20;;;;;;;;;;104149;1289;549375;-74
2023/11/26 00:56:00;;;;;;;16.70;7.40;;;;;;;;;;104149;1285;546590;-72
2023/11/26 00:59:36;;;;;;;8.00;3.50;;;;;;;;;;103848;1292;544973;-73
2023/11/26 01:03:14;;;;;;;6.60;2.90;;;;;;;;;;103682;1292;544785;-72
2023/11/26 01:06:53;;;;;;;6.90;3.10;;;;;;;;;;103614;1294;545585;-73
2023/11/26 01:10:29;;;;;;;4.40;1.90;;;;;;;;;;103841;1289;544977;-73
2023/11/26 01:14:07;;;;;;;4.80;2.20;;;;;;;;;;103798;1295;544802;-73
2023/11/26 01:17:44;;;;;;;5.30;2.20;;;;;;;;;;103962;1292;544872;-74
2023/11/26 01:21:20;;;;;;;6.40;2.50;;;;;;;;;;103735;1290;544943;-73
2023/11/26 01:24:54;;;;;;;6.80;3.00;;;;;;;;;;103938;1289;545902;-73
2023/11/26 01:28:36;;;;;;;6.70;2.90;;;;;;;;;;103851;1292;545405;-73
2023/11/26 01:32:14;;;;;;;6.80;2.70;;;;;;;;;;103813;1294;545079;-72
2023/11/26 01:35:51;;;;;;;6.80;2.70;;;;;;;;;;103826;1289;545771;-76
2023/11/26 01:39:28;;;;;;;7.50;3.00;;;;;;;;;;103789;1292;546648;-75
2023/11/26 01:43:06;;;;;;;8.70;3.30;;;;;;;;;;103958;1292;544996;-73
2023/11/26 01:46:43;;;;;;;6.40;2.90;;;;;;;;;;104070;1288;545239;-72
2023/11/26 01:50:22;;;;;;;8.00;3.20;;;;;;;;;;103777;1295;544926;-74
2023/11/26 01:54:04;;;;;;;7.70;3.30;;;;;;;;;;103443;1294;548242;-74
2023/11/26 01:57:36;;;;;;;7.30;3.10;;;;;;;;;;103550;1297;544828;-73
2023/11/26 02:01:14;;;;;;;7.60;3.10;;;;;;;;;;103962;1292;545108;-74
2023/11/26 02:04:50;;;;;;;7.10;3.20;;;;;;;;;;103655;1291;544768;-73
2023/11/26 02:08:31;;;;;;;9.00;4.10;;;;;;;;;;103626;1294;545042;-74
2023/11/26 02:12:09;;;;;;;7.90;3.50;;;;;;;;;;103683;1296;545096;-74
2023/11/26 02:15:44;;;;;;;7.40;3.10;;;;;;;;;;103822;1288;545194;-72
2023/11/26 02:19:26;;;;;;;7.30;3.50;;;;;;;;;;103731;1289;544908;-73
2023/11/26 02:22:57;;;;;;;8.40;4.00;;;;;;;;;;104248;1284;545661;-73
2023/11/26 02:26:35;;;;;;;8.00;3.70;;;;;;;;;;103817;1290;544790;-74
2023/11/26 02:30:13;;;;;;;8.20;3.70;;;;;;;;;;103718;1291;545054;-74
2023/11/26 02:33:51;;;;;;;7.60;3.80;;;;;;;;;;103768;1290;544656;-73
2023/11/26 02:37:28;;;;;;;8.60;5.00;;;;;;;;;;104019;1301;544928;-73
2023/11/26 02:41:04;;;;;;;8.40;4.00;;;;;;;;;;103853;1289;546760;-73
2023/11/26 02:44:42;;;;;;;8.10;4.00;;;;;;;;;;103535;1295;544976;-73
2023/11/26 02:48:19;;;;;;;10.20;4.50;;;;;;;;;;103852;1291;544972;-73
2023/11/26 02:51:53;;;;;;;8.60;4.10;;;;;;;;;;103865;1289;544730;-72
2023/11/26 02:55:35;;;;;;;8.30;3.90;;;;;;;;;;104653;1282;544933;-75
2023/11/26 02:59:12;;;;;;;5.10;1.90;;;;;;;;;;103839;1292;545094;-73
2023/11/26 03:02:51;;;;;;;5.60;2.00;;;;;;;;;;103574;1294;545155;-74
2023/11/26 03:06:27;;;;;;;8.80;2.30;;;;;;;;;;104073;1288;545417;-74
2023/11/26 03:13:43;;;;;;;7.00;2.00;;;;;;;;;;103809;1291;544809;-74
2023/11/26 03:17:20;;;;;;;7.60;2.60;;;;;;;;;;103858;1291;545265;-74
2023/11/26 03:21:00;;;;;;;7.10;3.10;;;;;;;;;;103863;1289;544944;-74
2023/11/26 03:24:40;;;;;;;7.30;3.20;;;;;;;;;;103694;1291;548530;-73
2023/11/26 03:28:13;;;;;;;8.30;3.60;;;;;;;;;;103786;1295;545842;-75
2023/11/26 03:31:53;;;;;;;7.90;3.40;;;;;;;;;;103856;1294;544991;-76
2023/11/26 03:35:24;;;;;;;7.80;3.90;;;;;;;;;;104787;1283;545002;-74
2023/11/26 03:39:05;;;;;;;8.10;4.30;;;;;;;;;;103787;1295;544740;-74
2023/11/26 03:42:42;;;;;;;9.30;3.90;;;;;;;;;;103789;1290;545046;-73
2023/11/26 03:46:21;;;;;;;11.00;4.20;;;;;;;;;;103745;1290;544792;-74
2023/11/26 03:49:57;;;;;;;7.90;3.80;;;;;;;;;;103794;1292;544920;-74
2023/11/26 03:53:34;;;;;;;9.10;4.30;;;;;;;;;;103733;1292;544987;-74
2023/11/26 03:57:12;;;;;;;8.80;3.90;;;;;;;;;;103837;1291;545832;-74
2023/11/26 04:00:49;;;;;;;7.20;3.20;;;;;;;;;;103766;1295;545331;-74
2023/11/26 04:04:27;;;;;;;7.00;2.80;;;;;;;;;;103803;1290;545520;-73
2023/11/26 04:08:04;;;;;;;8.90;4.10;;;;;;;;;;103808;1292;545061;-73
2023/11/26 04:11:44;;;;;;;8.10;3.80;;;;;;;;;;103740;1291;544897;-73
2023/11/26 04:15:22;;;;;;;8.70;3.70;;;;;;;;;;103751;1292;546150;-72
2023/11/26 04:18:55;;;;;;;9.50;3.80;;;;;;;;;;104693;1283;544715;-72
2023/11/26 04:22:34;;;;;;;8.30;3.80;;;;;;;;;;103774;1292;546141;-73
2023/11/26 04:26:12;;;;;;;8.50;4.20;;;;;;;;;;103615;1294;545060;-73
2023/11/26 04:29:49;;;;;;;8.50;3.90;;;;;;;;;;103721;1289;545416;-73
2023/11/26 04:33:26;;;;;;;7.50;3.60;;;;;;;;;;104329;1283;545550;-74
2023/11/26 04:37:14;;;;;;;7.90;3.10;;;;;;;;;;103751;1292;544835;-74
2023/11/26 04:40:41;;;;;;;9.30;3.90;;;;;;;;;;103772;1295;545379;-73
2023/11/26 04:44:19;;;;;;;8.20;3.50;;;;;;;;;;103563;1292;544963;-72
2023/11/26 04:47:57;;;;;;;7.10;2.60;;;;;;;;;;103679;1294;544747;-73
2023/11/26 04:51:36;;;;;;;6.90;3.20;;;;;;;;;;103687;1297;544796;-72
2023/11/26 04:55:12;;;;;;;6.70;3.00;;;;;;;;;;103877;1288;545414;-75
2023/11/26 04:58:50;;;;;;;5.80;2.20;;;;;;;;;;103580;1307;545588;-74
2023/11/26 05:02:23;;;;;;;5.00;2.20;;;;;;;;;;104410;1286;544757;-72
2023/11/26 05:06:03;;;;;;;6.00;2.50;;;;;;;;;;103817;1291;544832;-76
2023/11/26 05:09:41;;;;;;;7.90;3.00;;;;;;;;;;104544;1283;545398;-73
2023/11/26 05:13:19;;;;;;;5.60;2.30;;;;;;;;;;104266;1283;545518;-76
2023/11/26 05:16:55;;;;;;;6.50;2.30;;;;;;;;;;103858;1288;545293;-73
2023/11/26 05:20:30;;;;;;;5.80;2.40;;;;;;;;;;104026;1292;545308;-74
2023/11/26 05:24:11;;;;;;;6.40;2.60;;;;;;;;;;103548;1294;544989;-74
2023/11/26 05:27:48;;;;;;;6.30;2.50;;;;;;;;;;103752;1303;544782;-73
2023/11/26 05:31:26;;;;;;;6.90;2.60;;;;;;;;;;103775;1290;544990;-74
2023/11/26 05:35:12;;;;;;;8.10;3.30;;;;;;;;;;103805;1292;545510;-72
2023/11/26 05:38:41;;;;;;;7.70;3.20;;;;;;;;;;103784;1292;545815;-72
2023/11/26 05:42:18;;;;;;;7.00;2.90;;;;;;;;;;104005;1289;544832;-73
2023/11/26 05:45:52;;;;;;;6.90;3.00;;;;;;;;;;104255;1288;546061;-73
2023/11/26 05:49:33;;;;;;;6.10;2.40;;;;;;;;;;104076;1288;545719;-71
2023/11/26 05:53:12;;;;;;;7.10;2.60;;;;;;;;;;103907;1288;544942;-72
2023/11/26 05:56:50;;;;;;;6.50;2.80;;;;;;;;;;103803;1291;545315;-72
2023/11/26 06:00:26;;;;;;;6.40;2.70;;;;;;;;;;104525;1282;544743;-73
2023/11/26 06:04:04;;;;;;;5.70;2.50;;;;;;;;;;103756;1289;544810;-76
2023/11/26 06:07:40;;;;;;;7.70;2.90;;;;;;;;;;103844;1292;544766;-71
2023/11/26 06:11:18;;;;;;;6.30;2.80;;;;;;;;;;103703;1294;544955;-73
2023/11/26 06:14:55;;;;;;;7.30;3.20;;;;;;;;;;103870;1288;545808;-73
2023/11/26 06:18:33;;;;;;;6.10;2.30;;;;;;;;;;103878;1292;544966;-73
2023/11/26 06:22:10;;;;;;;6.10;2.40;;;;;;;;;;103791;1292;545248;-72
2023/11/26 06:25:48;;;;;;;6.90;2.90;;;;;;;;;;103627;1293;545219;-73
2023/11/26 06:29:24;;;;;;;6.90;2.70;;;;;;;;;;103763;1294;544948;-72
2023/11/26 06:33:03;;;;;;;6.70;2.50;;;;;;;;;;103856;1289;546236;-73
2023/11/26 06:36:40;;;;;;;5.90;2.40;;;;;;;;;;103754;1290;544721;-72
2023/11/26 06:40:17;;;;;;;7.20;3.20;;;;;;;;;;103822;1292;544726;-73
2023/11/26 06:44:01;;;;;;;5.90;2.60;;;;;;;;;;103310;1297;547926;-72
2023/11/26 06:47:33;;;;;;;7.70;3.10;;;;;;;;;;103761;1291;545038;-73
2023/11/26 06:51:13;;;;;;;9.20;3.30;;;;;;;;;;103756;1290;544738;-75
2023/11/26 06:54:48;;;;;;;8.60;3.80;;;;;;;;;;103696;1295;544734;-75
2023/11/26 06:58:25;;;;;;;7.60;3.40;;;;;;;;;;103829;1291;544934;-72
2023/11/26 07:02:03;;;;;;;7.60;3.50;;;;;;;;;;104634;1282;545441;-74
2023/11/26 07:05:41;;;;;;;8.70;3.80;;;;;;;;;;103603;1292;545814;-73
2023/11/26 07:09:17;;;;;;;9.70;3.70;;;;;;;;;;103555;1293;545003;-72
2023/11/26 07:12:57;;;;;;;8.50;4.20;;;;;;;;;;103774;1295;544796;-74
2023/11/26 07:16:32;;;;;;;8.00;3.90;;;;;;;;;;103910;1289;544925;-73
2023/11/26 07:20:11;;;;;;;7.90;3.20;;;;;;;;;;104221;1285;544958;-72
2023/11/26 07:23:50;;;;;;;6.30;2.80;;;;;;;;;;103798;1292;545341;-73
2023/11/26 07:27:25;;;;;;;7.40;3.50;;;;;;;;;;103938;1289;544972;-70
2023/11/26 07:31:02;;;;;;;10.50;4.20;;;;;;;;;;103720;1291;544724;-73
2023/11/26 07:34:48;;;;;;;8.90;4.50;;;;;;;;;;103733;1293;545204;-73
2023/11/26 07:38:20;;;;;;;9.40;3.70;;;;;;;;;;103760;1289;544731;-73
2023/11/26 07:41:55;;;;;;;8.50;3.90;;;;;;;;;;103751;1292;544711;-73
2023/11/26 07:45:32;;;;;;;9.40;4.90;;;;;;;;;;103774;1291;545034;-72
2023/11/26 07:49:09;;;;;;;9.40;5.10;;;;;;;;;;103821;1291;544925;-72
2023/11/26 07:52:47;;;;;;;9.00;4.30;;;;;;;;;;103425;1294;545854;-76
2023/11/26 07:56:25;;;;;;;9.10;4.30;;;;;;;;;;103951;1288;545569;-74
2023/11/26 08:00:02;;;;;;;11.30;5.80;;;;;;;;;;103826;1291;544993;-72
2023/11/26 08:03:39;;;;;;;13.10;4.50;;;;;;;;;;103809;1291;545479;-72
2023/11/26 08:07:19;;;;;;;8.30;3.90;;;;;;;;;;103847;1291;545355;-73
2023/11/26 08:10:54;;;;;;;8.00;4.20;;;;;;;;;;104287;1286;545081;-73
2023/11/26 08:14:32;;;;;;;8.90;4.20;;;;;;;;;;103766;1293;544822;-73
2023/11/26 08:18:10;;;;;;;8.50;4.70;;;;;;;;;;103794;1291;545647;-73
2023/11/26 08:21:47;;;;;;;6.70;3.20;;;;;;;;;;103821;1290;544889;-72
2023/11/26 08:25:28;;;;;;;11.80;5.70;;;;;;;;;;103737;1292;545040;-72
2023/11/26 08:29:01;;;;;;;11.50;5.70;;;;;;;;;;104123;1289;545047;-74
2023/11/26 08:32:59;;;;;;;10.80;4.20;;;;;;;;;;103691;1293;547808;-76
2023/11/26 08:36:18;;;;;;;9.20;3.80;;;;;;;;;;103858;1289;546031;-72
2023/11/26 08:39:51;;;;;;;7.40;3.40;;;;;;;;;;103871;1292;545497;-75
2023/11/26 08:43:28;;;;;;;7.40;3.50;;;;;;;;;;103999;1289;544945;-73
2023/11/26 08:47:09;;;;;;;8.70;3.80;;;;;;;;;;103702;1294;546014;-73
2023/11/26 08:50:46;;;;;;;10.60;4.20;;;;;;;;;;103773;1291;545424;-75
2023/11/26 08:54:23;;;;;;;9.90;4.50;;;;;;;;;;103833;1296;545055;-74
2023/11/26 08:58:01;;;;;;;12.60;4.90;;;;;;;;;;104522;1282;545247;-73
2023/11/26 09:01:39;;;;;;;9.10;3.20;;;;;;;;;;103775;1291;545501;-72
2023/11/26 09:05:16;;;;;;;10.90;4.80;;;;;;;;;;103807;1292;544612;-74
2023/11/26 09:08:54;;;;;;;9.30;3.90;;;;;;;;;;103799;1292;544988;-74
2023/11/26 09:12:31;;;;;;;9.70;3.80;;;;;;;;;;104349;1285;545593;-74
2023/11/26 09:16:06;;;;;;;10.40;4.50;;;;;;;;;;103967;1288;544709;-75
2023/11/26 09:19:42;;;;;;;8.60;3.50;;;;;;;;;;103923;1289;544894;-73
2023/11/26 09:23:24;;;;;;;8.50;3.20;;;;;;;;;;103858;1292;544842;-73
2023/11/26 09:27:01;;;;;;;10.20;4.50;;;;;;;;;;103744;1295;544978;-74
2023/11/26 09:30:38;;;;;;;59.30;50.70;;;;;;;;;;103998;1291;544740;-73
2023/11/26 09:34:21;;;;;;;20.40;16.20;;;;;;;;;;103720;1296;545970;-73
2023/11/26 09:38:20;;;;;;;16.40;12.00;;;;;;;;;;103747;1295;544797;-72
2023/11/26 09:41:31;;;;;;;8.20;3.80;;;;;;;;;;103771;1292;545133;-73
2023/11/26 09:45:09;;;;;;;7.10;2.90;;;;;;;;;;103809;1295;544895;-73
2023/11/26 09:48:46;;;;;;;8.60;3.40;;;;;;;;;;103761;1295;546546;-76
2023/11/26 09:52:24;;;;;;;9.80;3.80;;;;;;;;;;104430;1285;545072;-75
2023/11/26 09:56:01;;;;;;;10.10;4.00;;;;;;;;;;103861;1291;545080;-74
2023/11/26 09:59:39;;;;;;;11.50;3.80;;;;;;;;;;103772;1291;545256;-73
2023/11/26 10:03:15;;;;;;;8.70;2.80;;;;;;;;;;103838;1289;544951;-75
2023/11/26 10:06:56;;;;;;;7.70;2.70;;;;;;;;;;103770;1292;544796;-74
2023/11/26 10:10:31;;;;;;;8.90;3.30;;;;;;;;;;103915;1291;545007;-74
2023/11/26 10:14:21;;;;;;;8.40;4.00;;;;;;;;;;103839;1290;544987;-74
2023/11/26 10:18:00;;;;;;;7.70;3.30;;;;;;;;;;103891;1292;544996;-75
2023/11/26 10:21:19;;;;;;;8.90;3.30;;;;;;;;;;103796;1292;544827;-73
2023/11/26 10:25:12;;;;;;;7.50;2.70;;;;;;;;;;103752;1290;548472;-75
2023/11/26 10:28:38;;;;;;;8.20;3.20;;;;;;;;;;103743;1292;545556;-73
2023/11/26 10:33:11;;;;;;;6.60;2.40;;;;;;;;;;103778;1294;548093;-78
2023/11/26 10:35:55;;;;;;;8.00;2.70;;;;;;;;;;103799;1291;544848;-73
2023/11/26 10:39:28;;;;;;;9.00;3.20;;;;;;;;;;103821;1292;546078;-74
2023/11/26 10:43:10;;;;;;;9.90;3.40;;;;;;;;;;103734;1297;544643;-73
2023/11/26 10:46:47;;;;;;;11.00;4.70;;;;;;;;;;103841;1289;544956;-75
2023/11/26 10:50:32;;;;;;;12.80;5.40;;;;;;;;;;103720;1289;547814;-72
2023/11/26 10:54:03;;;;;;;15.40;6.40;;;;;;;;;;103831;1289;544996;-76
2023/11/26 10:57:36;;;;;;;17.50;7.60;;;;;;;;;;104309;1292;545077;-74
2023/11/26 11:01:17;;;;;;;16.40;6.60;;;;;;;;;;103950;1292;544940;-75
2023/11/26 11:05:00;;;;;;;20.70;9.60;;;;;;;;;;103904;1299;547754;-74
2023/11/26 11:08:40;;;;;;;16.20;7.30;;;;;;;;;;103581;1292;547810;-75
2023/11/26 11:12:15;;;;;;;16.60;7.70;;;;;;;;;;103947;1289;547978;-75
2023/11/26 11:15:52;;;;;;;9.40;3.90;;;;;;;;;;104171;1289;548012;-76
2023/11/26 11:19:43;;;;;;;8.20;3.30;;;;;;;;;;103808;1295;545548;-76
2023/11/26 11:22:59;;;;;;;15.30;5.90;;;;;;;;;;104681;1288;544997;-73
2023/11/26 11:26:48;;;;;;;9.80;3.90;;;;;;;;;;103753;1295;545302;-73
2023/11/26 11:30:31;;;;;;;11.70;4.70;;;;;;;;;;104004;1292;544855;-74
2023/11/26 11:33:59;;;;;;;10.10;4.10;;;;;;;;;;103942;1291;546033;-73
2023/11/26 11:37:56;;;;;;;10.00;3.90;;;;;;;;;;103770;1291;545723;-74
2023/11/26 11:41:11;;;;;;;8.40;3.70;;;;;;;;;;103790;1291;545511;-75
2023/11/26 11:44:46;;;;;;;10.20;4.50;;;;;;;;;;103795;1292;544992;-76
2023/11/26 11:48:42;;;;;;;13.10;6.00;;;;;;;;;;104410;1283;544795;-76
2023/11/26 11:52:09;;;;;;;17.00;7.80;;;;;;;;;;103844;1291;545481;-74
2023/11/26 11:55:44;;;;;;;12.50;5.50;;;;;;;;;;103820;1290;545467;-75
2023/11/26 11:59:18;;;;;;;14.00;7.00;;;;;;;;;;103954;1292;545906;-73
2023/11/26 12:02:50;;;;;;;21.80;9.50;;;;;;;;;;104006;1290;544614;-74
2023/11/26 12:06:31;;;;;;;17.90;8.70;;;;;;;;;;103833;1294;544732;-75
2023/11/26 12:10:05;;;;;;;17.00;9.80;;;;;;;;;;103881;1292;544796;-76
2023/11/26 12:13:44;;;;;;;9.80;5.00;;;;;;;;;;104000;1289;545442;-74
2023/11/26 12:17:23;;;;;;;11.20;4.30;;;;;;;;;;104439;1284;545029;-76
2023/11/26 12:21:03;;;;;;;8.60;3.70;;;;;;;;;;103656;1293;545010;-74
2023/11/26 12:24:41;;;;;;;12.70;6.60;;;;;;;;;;103880;1291;545099;-74
2023/11/26 12:28:17;;;;;;;8.20;3.60;;;;;;;;;;103588;1298;544909;-74
2023/11/26 12:32:05;;;;;;;8.10;3.20;;;;;;;;;;103770;1292;546418;-76
2023/11/26 12:35:31;;;;;;;8.70;3.40;;;;;;;;;;103805;1292;544871;-74
2023/11/26 12:39:10;;;;;;;11.50;4.90;;;;;;;;;;103832;1290;545781;-75
2023/11/26 12:42:46;;;;;;;15.30;6.90;;;;;;;;;;103888;1292;545735;-74
2023/11/26 12:46:39;;;;;;;20.60;10.20;;;;;;;;;;103844;1292;548989;-74
2023/11/26 12:50:02;;;;;;;24.50;13.10;;;;;;;;;;103824;1292;545659;-72
2023/11/26 12:53:39;;;;;;;18.00;9.70;;;;;;;;;;103523;1295;545493;-73
2023/11/26 12:57:15;;;;;;;13.80;8.10;;;;;;;;;;103829;1289;544883;-74
2023/11/26 13:00:52;;;;;;;9.90;4.00;;;;;;;;;;103776;1292;544872;-73
2023/11/26 13:04:31;;;;;;;8.90;4.00;;;;;;;;;;103824;1288;544865;-73
2023/11/26 13:08:18;;;;;;;8.90;4.10;;;;;;;;;;103689;1291;544743;-73
2023/11/26 13:11:46;;;;;;;9.80;3.40;;;;;;;;;;104101;1286;545110;-74
2023/11/26 13:15:22;;;;;;;8.50;3.50;;;;;;;;;;103622;1294;544902;-72
2023/11/26 13:19:03;;;;;;;9.10;3.80;;;;;;;;;;103785;1302;545728;-73
2023/11/26 13:22:37;;;;;;;9.20;4.30;;;;;;;;;;103786;1291;545470;-74
2023/11/26 13:26:15;;;;;;;10.90;5.10;;;;;;;;;;103855;1288;546683;-75
2023/11/26 13:29:52;;;;;;;9.30;4.20;;;;;;;;;;103736;1291;545165;-73
2023/11/26 13:33:31;;;;;;;12.80;5.60;;;;;;;;;;103777;1289;545144;-74
2023/11/26 13:37:08;;;;;;;8.30;2.80;;;;;;;;;;103758;1289;546242;-74
2023/11/26 13:40:48;;;;;;;8.40;3.50;;;;;;;;;;103871;1289;545189;-73
2023/11/26 13:44:26;;;;;;;7.90;3.50;;;;;;;;;;103753;1298;546674;-73
2023/11/26 13:48:00;;;;;;;13.10;4.80;;;;;;;;;;103771;1299;545020;-77
2023/11/26 13:51:37;;;;;;;8.60;3.70;;;;;;;;;;103692;1292;544741;-73
2023/11/26 13:55:34;;;;;;;13.30;6.30;;;;;;;;;;103713;1292;548186;-73
2023/11/26 13:58:52;;;;;;;41.00;17.10;;;;;;;;;;103773;1302;544964;-76
2023/11/26 14:02:30;;;;;;;30.70;15.10;;;;;;;;;;104029;1291;544863;-74
2023/11/26 14:06:11;;;;;;;10.70;5.10;;;;;;;;;;103748;1292;545147;-72
2023/11/26 14:09:40;;;;;;;8.40;3.90;;;;;;;;;;103758;1295;544784;-73
2023/11/26 14:13:24;;;;;;;9.80;4.80;;;;;;;;;;103741;1292;545120;-73
2023/11/26 14:17:19;;;;;;;11.40;5.00;;;;;;;;;;103697;1297;547981;-76
2023/11/26 14:20:39;;;;;;;11.30;5.40;;;;;;;;;;103589;1294;546499;-72
2023/11/26 14:24:14;;;;;;;9.30;4.30;;;;;;;;;;103526;1294;545845;-73
2023/11/26 14:28:11;;;;;;;10.00;4.00;;;;;;;;;;103715;1292;548014;-72
2023/11/26 14:31:32;;;;;;;10.00;4.60;;;;;;;;;;103736;1291;545377;-72
2023/11/26 14:35:07;;;;;;;10.30;4.00;;;;;;;;;;103521;1294;545447;-73
2023/11/26 14:38:44;;;;;;;9.50;4.50;;;;;;;;;;103582;1294;545912;-73
2023/11/26 14:42:28;;;;;;;13.80;5.80;;;;;;;;;;103778;1292;545031;-72
2023/11/26 14:45:59;;;;;;;9.20;5.50;;;;;;;;;;103801;1290;544986;-73
2023/11/26 14:49:36;;;;;;;9.10;4.50;;;;;;;;;;103810;1300;545312;-72
2023/11/26 14:53:18;;;;;;;9.00;4.40;;;;;;;;;;103705;1292;544904;-73
2023/11/26 14:56:47;;;;;;;11.30;6.80;;;;;;;;;;103840;1288;544881;-72
2023/11/26 15:00:31;;;;;;;10.50;4.60;;;;;;;;;;103523;1297;545035;-76
2023/11/26 15:04:07;;;;;;;18.00;9.30;;;;;;;;;;103840;1288;545030;-75
2023/11/26 15:07:44;;;;;;;21.10;11.60;;;;;;;;;;103848;1290;544986;-71
2023/11/26 15:11:22;;;;;;;12.30;6.10;;;;;;;;;;103807;1295;545592;-73
2023/11/26 15:15:20;;;;;;;10.10;6.10;;;;;;;;;;103685;1289;549525;-73
2023/11/26 15:18:37;;;;;;;13.10;6.90;;;;;;;;;;103880;1294;545125;-75
2023/11/26 15:22:16;;;;;;;25.90;14.70;;;;;;;;;;103651;1297;545527;-73
2023/11/26 15:26:21;;;;;;;30.10;17.20;;;;;;;;;;103702;1291;547765;-72
2023/11/26 15:29:30;;;;;;;86.60;45.20;;;;;;;;;;103734;1292;547437;-74
2023/11/26 15:33:06;;;;;;;40.70;23.80;;;;;;;;;;103606;1299;544798;-73
2023/11/26 15:36:44;;;;;;;56.40;33.20;;;;;;;;;;103874;1292;545292;-72
2023/11/26 15:40:21;;;;;;;66.00;33.40;;;;;;;;;;103923;1288;544765;-73
2023/11/26 15:44:20;;;;;;;54.90;26.40;;;;;;;;;;103664;1292;545173;-76
2023/11/26 15:47:35;;;;;;;80.40;41.10;;;;;;;;;;103824;1291;544986;-74
2023/11/26 15:51:16;;;;;;;70.40;36.50;;;;;;;;;;103619;1292;545230;-73
2023/11/26 15:54:50;;;;;;;98.90;42.40;;;;;;;;;;103782;1292;545500;-72
2023/11/26 15:58:29;;;;;;;69.70;37.50;;;;;;;;;;104075;1288;544652;-72
2023/11/26 16:02:02;;;;;;;51.90;26.80;;;;;;;;;;103915;1289;544968;-76
2023/11/26 16:06:04;;;;;;;22.90;12.70;;;;;;;;;;103737;1292;547893;-72
2023/11/26 16:09:18;;;;;;;14.30;9.20;;;;;;;;;;103749;1291;545018;-72
2023/11/26 16:12:59;;;;;;;12.60;7.40;;;;;;;;;;103550;1297;544785;-72
2023/11/26 16:17:03;;;;;;;151.60;78.40;;;;;;;;;;104380;1282;545335;-76
2023/11/26 16:20:22;;;;;;;61.80;31.10;;;;;;;;;;103703;1289;545626;-72
2023/11/26 16:23:51;;;;;;;35.10;18.30;;;;;;;;;;103744;1292;547937;-72
2023/11/26 16:27:29;;;;;;;11.60;6.10;;;;;;;;;;103823;1295;544993;-72
2023/11/26 16:31:08;;;;;;;34.80;25.10;;;;;;;;;;103840;1290;545002;-72
2023/11/26 16:35:04;;;;;;;17.50;10.10;;;;;;;;;;103919;1295;545544;-75
2023/11/26 16:38:22;;;;;;;22.30;11.90;;;;;;;;;;103916;1291;545661;-72
2023/11/26 16:42:00;;;;;;;19.10;13.00;;;;;;;;;;103791;1292;545546;-72
2023/11/26 16:45:35;;;;;;;13.80;8.60;;;;;;;;;;103667;1295;545042;-72
2023/11/26 16:49:14;;;;;;;11.40;6.30;;;;;;;;;;103803;1291;544772;-72
2023/11/26 16:52:51;;;;;;;14.70;9.70;;;;;;;;;;103753;1295;544995;-73
2023/11/26 16:56:28;;;;;;;12.20;6.30;;;;;;;;;;103648;1294;544962;-74
2023/11/26 17:00:08;;;;;;;12.00;5.60;;;;;;;;;;103714;1290;545117;-73
2023/11/26 17:04:04;;;;;;;28.10;14.20;;;;;;;;;;103800;1292;547959;-72
2023/11/26 17:07:28;;;;;;;29.60;17.60;;;;;;;;;;103667;1291;548261;-73
2023/11/26 17:11:11;;;;;;;;;;;;;;;;;;;;;
2023/11/26 17:14:39;;;;;;;18.00;9.80;;;;;;;;;;103717;1292;546413;-75
2023/11/26 17:18:20;;;;;;;19.10;8.80;;;;;;;;;;103769;1291;547859;-74
2023/11/26 17:21:58;;;;;;;27.00;12.80;;;;;;;;;;103835;1292;546668;-72
2023/11/26 17:25:32;;;;;;;20.10;10.30;;;;;;;;;;103693;1292;545111;-73
2023/11/26 17:29:11;;;;;;;26.00;9.70;;;;;;;;;;103896;1289;545962;-72
2023/11/26 17:33:05;;;;;;;45.00;18.50;;;;;;;;;;103658;1292;545743;-75
2023/11/26 17:36:20;;;;;;;34.60;11.90;;;;;;;;;;103745;1295;544923;-75
2023/11/26 17:39:59;;;;;;;22.30;8.20;;;;;;;;;;103616;1297;545182;-77
2023/11/26 17:43:36;;;;;;;25.00;9.70;;;;;;;;;;103673;1292;546666;-74
2023/11/26 17:47:12;;;;;;;19.50;9.10;;;;;;;;;;103862;1289;544833;-73
2023/11/26 17:50:52;;;;;;;24.80;9.90;;;;;;;;;;103850;1290;545075;-74
2023/11/26 17:54:28;;;;;;;33.60;11.30;;;;;;;;;;103734;1293;545845;-72
2023/11/26 17:58:10;;;;;;;17.90;7.30;;;;;;;;;;103743;1290;545015;-72
2023/11/26 18:01:48;;;;;;;19.50;8.90;;;;;;;;;;103782;1292;545409;-75
2023/11/26 18:05:20;;;;;;;18.50;9.50;;;;;;;;;;103848;1291;545056;-77
2023/11/26 18:09:09;;;;;;;26.00;9.00;;;;;;;;;;104543;1285;545477;-79
2023/11/26 18:12:35;;;;;;;21.80;9.30;;;;;;;;;;104233;1291;545451;-72
2023/11/26 18:16:12;;;;;;;28.00;11.00;;;;;;;;;;103907;1289;545138;-73
2023/11/26 18:19:52;;;;;;;17.40;10.20;;;;;;;;;;103993;1288;544819;-74
2023/11/26 18:23:28;;;;;;;20.20;11.30;;;;;;;;;;103807;1292;545016;-72
2023/11/26 18:27:12;;;;;;;16.30;9.40;;;;;;;;;;103838;1289;544917;-73
2023/11/26 18:30:44;;;;;;;17.20;10.20;;;;;;;;;;103786;1291;547881;-72
2023/11/26 18:34:21;;;;;;;23.00;13.40;;;;;;;;;;104145;1289;544770;-72
2023/11/26 18:38:00;;;;;;;23.20;11.60;;;;;;;;;;103820;1289;545727;-75
2023/11/26 18:41:36;;;;;;;27.00;14.50;;;;;;;;;;103710;1292;545215;-72
2023/11/26 18:45:15;;;;;;;59.80;28.10;;;;;;;;;;103940;1289;545808;-73
2023/11/26 18:48:52;;;;;;;24.20;12.30;;;;;;;;;;103742;1295;545406;-72
2023/11/26 18:52:47;;;;;;;17.80;9.80;;;;;;;;;;103707;1293;547886;-74
2023/11/26 18:56:08;;;;;;;17.60;10.80;;;;;;;;;;103860;1292;545001;-74
2023/11/26 18:59:44;;;;;;;22.70;13.00;;;;;;;;;;103795;1289;545051;-75
2023/11/26 19:03:47;;;;;;;30.50;16.70;;;;;;;;;;104878;1291;545289;-80
2023/11/26 19:06:56;;;;;;;19.50;12.40;;;;;;;;;;103840;1295;544833;-74
2023/11/26 19:10:34;;;;;;;18.10;9.00;;;;;;;;;;103779;1291;545587;-73
2023/11/26 19:14:17;;;;;;;22.10;12.50;;;;;;;;;;103755;1291;546736;-73
2023/11/26 19:18:08;;;;;;;48.20;24.70;;;;;;;;;;103719;1294;547762;-78
2023/11/26 19:21:32;;;;;;;64.00;31.90;;;;;;;;;;103797;1291;545134;-75
2023/11/26 19:25:23;;;;;;;89.10;35.90;;;;;;;;;;103632;1292;548015;-80
2023/11/26 19:28:42;;;;;;;66.80;29.30;;;;;;;;;;104175;1285;545308;-73
2023/11/26 19:32:24;;;;;;;89.50;41.70;;;;;;;;;;103767;1291;545654;-73
2023/11/26 19:35:58;;;;;;;86.50;42.30;;;;;;;;;;103575;1295;545667;-73
2023/11/26 19:39:36;;;;;;;63.50;34.00;;;;;;;;;;103867;1288;544822;-73
2023/11/26 19:43:32;;;;;;;60.30;30.80;;;;;;;;;;104070;1289;548728;-76
2023/11/26 19:47:08;;;;;;;75.40;35.30;;;;;;;;;;103751;1292;548129;-76
2023/11/26 19:50:30;;;;;;;98.00;42.20;;;;;;;;;;104172;1285;547984;-76
2023/11/26 19:54:12;;;;;;;67.70;31.40;;;;;;;;;;104056;1285;545362;-75
2023/11/26 19:57:43;;;;;;;59.40;27.50;;;;;;;;;;104130;1291;544959;-78
2023/11/26 20:01:22;;;;;;;149.40;56.90;;;;;;;;;;104566;1282;545684;-72
2023/11/26 20:05:01;;;;;;;54.30;27.90;;;;;;;;;;103710;1295;545354;-74
2023/11/26 20:08:44;;;;;;;32.30;15.70;;;;;;;;;;103869;1292;549241;-77
2023/11/26 20:12:32;;;;;;;44.60;23.10;;;;;;;;;;103414;1305;547973;-77
2023/11/26 20:15:49;;;;;;;32.70;18.10;;;;;;;;;;103640;1292;545735;-73
2023/11/26 20:19:31;;;;;;;28.80;16.80;;;;;;;;;;103795;1294;544897;-76
2023/11/26 20:23:03;;;;;;;34.30;18.40;;;;;;;;;;103854;1290;545462;-73
2023/11/26 20:26:44;;;;;;;32.40;16.70;;;;;;;;;;103798;1289;544997;-75
2023/11/26 20:30:47;;;;;;;34.30;16.50;;;;;;;;;;103737;1294;547969;-74
2023/11/26 20:34:05;;;;;;;39.50;18.50;;;;;;;;;;103747;1296;549459;-74
2023/11/26 20:37:36;;;;;;;42.10;18.80;;;;;;;;;;104342;1286;544871;-78
2023/11/26 20:41:14;;;;;;;41.80;16.70;;;;;;;;;;103648;1293;545361;-74
2023/11/26 20:44:50;;;;;;;46.30;16.70;;;;;;;;;;103767;1297;545260;-75
2023/11/26 20:48:29;;;;;;;43.80;17.10;;;;;;;;;;103763;1289;544841;-74
2023/11/26 20:52:24;;;;;;;39.10;16.10;;;;;;;;;;103698;1295;545365;-78
2023/11/26 20:55:48;;;;;;;26.90;14.70;;;;;;;;;;103485;1298;545462;-79